createdAt,value
2022-08-26T00:02:09.162Z,9.20
2022-08-26T00:04:38.063Z,9.15
2022-08-26T00:07:07.191Z,9.93
2022-08-26T00:09:40.090Z,9.27
2022-08-26T00:12:12.307Z,9.25
2022-08-26T00:14:42.073Z,9.43
2022-08-26T00:17:12.251Z,10.13
2022-08-26T00:19:41.443Z,9.98
2022-08-26T00:22:10.413Z,10.07
2022-08-26T00:24:40.479Z,9.60
2022-08-26T00:27:16.829Z,9.52
2022-08-26T00:29:46.172Z,10.13
2022-08-26T00:32:16.213Z,9.80
2022-08-26T00:34:45.554Z,9.88
2022-08-26T00:37:16.263Z,9.18
2022-08-26T00:39:45.660Z,9.77
2022-08-26T00:42:14.594Z,9.45
2022-08-26T00:44:45.207Z,10.02
2022-08-26T00:47:23.354Z,10.07
2022-08-26T00:49:52.821Z,10.35
2022-08-26T00:52:24.060Z,10.38
2022-08-26T00:54:59.710Z,9.30
2022-08-26T00:57:28.940Z,9.15
2022-08-26T01:00:01.455Z,10.18
2022-08-26T01:02:31.639Z,10.63
2022-08-26T01:05:03.337Z,10.63
2022-08-26T01:07:34.722Z,10.13
2022-08-26T01:10:09.300Z,9.98
2022-08-26T01:12:43.762Z,10.15
2022-08-26T01:15:16.656Z,9.57
2022-08-26T01:17:47.426Z,10.40
2022-08-26T01:20:27.778Z,11.07
2022-08-26T01:23:01.486Z,10.23
2022-08-26T01:25:34.584Z,10.75
2022-08-26T01:28:07.149Z,10.00
2022-08-26T01:30:38.667Z,10.48
2022-08-26T01:33:19.983Z,11.20
2022-08-26T01:35:49.296Z,11.68
2022-08-26T01:38:19.894Z,10.25
2022-08-26T01:40:49.427Z,10.57
2022-08-26T01:43:24.058Z,10.20
2022-08-26T01:45:57.300Z,10.38
2022-08-26T01:48:29.879Z,10.90
2022-08-26T01:50:59.790Z,10.82
2022-08-26T01:53:30.790Z,10.48
2022-08-26T01:56:03.064Z,10.98
2022-08-26T01:58:37.465Z,11.50
2022-08-26T02:01:07.114Z,10.27
2022-08-26T02:03:47.664Z,10.13
2022-08-26T02:06:16.574Z,11.07
2022-08-26T02:08:49.700Z,10.15
2022-08-26T02:11:19.625Z,10.07
2022-08-26T02:13:52.461Z,10.02
2022-08-26T02:16:27.867Z,9.70
2022-08-26T02:18:57.906Z,10.20
2022-08-26T02:21:27.165Z,11.25
2022-08-26T02:23:57.815Z,10.70
2022-08-26T02:26:27.122Z,10.07
2022-08-26T02:29:03.046Z,10.23
2022-08-26T02:31:31.896Z,10.60
2022-08-26T02:34:08.990Z,10.55
2022-08-26T02:36:39.825Z,10.70
2022-08-26T02:39:10.592Z,11.13
2022-08-26T02:41:44.887Z,10.77
2022-08-26T02:44:13.992Z,10.27
2022-08-26T02:46:47.051Z,11.05
2022-08-26T02:49:17.124Z,9.57
2022-08-26T02:51:46.786Z,10.13
2022-08-26T02:54:16.865Z,10.95
2022-08-26T02:56:46.574Z,10.43
2022-08-26T02:59:15.538Z,10.00
2022-08-26T03:01:45.450Z,10.75
2022-08-26T03:04:15.234Z,10.27
2022-08-26T03:06:44.358Z,10.18
2022-08-26T03:09:23.377Z,9.48
2022-08-26T03:11:52.432Z,11.02
2022-08-26T03:14:21.366Z,10.80
2022-08-26T03:16:54.508Z,10.98
2022-08-26T03:19:24.619Z,10.60
2022-08-26T03:21:57.800Z,10.30
2022-08-26T03:24:28.970Z,10.27
2022-08-26T03:26:57.926Z,9.45
2022-08-26T03:29:43.975Z,10.48
2022-08-26T03:32:18.975Z,10.48
2022-08-26T03:34:48.073Z,10.38
2022-08-26T03:37:16.804Z,9.95
2022-08-26T03:39:47.399Z,9.93
2022-08-26T03:42:16.774Z,13.65
2022-08-26T03:44:45.851Z,10.30
2022-08-26T03:47:14.678Z,9.43
2022-08-26T03:49:43.440Z,9.07
2022-08-26T03:52:14.025Z,11.65
2022-08-26T03:54:43.548Z,9.20
2022-08-26T03:57:13.573Z,9.75
2022-08-26T04:02:14.158Z,8.65
2022-08-26T04:04:44.444Z,9.77
2022-08-26T04:07:13.683Z,10.25
2022-08-26T04:09:43.879Z,9.60
2022-08-26T04:12:13.937Z,9.63
2022-08-26T04:14:43.755Z,9.95
2022-08-26T04:17:13.456Z,15.55
2022-08-26T04:19:42.237Z,9.18
2022-08-26T04:22:11.124Z,9.15
2022-08-26T04:24:40.322Z,9.80
2022-08-26T04:27:10.469Z,9.82
2022-08-26T04:29:41.651Z,9.85
2022-08-26T04:32:10.649Z,9.32
2022-08-26T04:34:39.823Z,9.13
2022-08-26T04:37:09.284Z,8.50
2022-08-26T04:39:38.235Z,8.80
2022-08-26T04:42:07.665Z,8.98
2022-08-26T04:44:38.722Z,8.88
2022-08-26T04:47:09.801Z,9.73
2022-08-26T04:49:40.394Z,9.68
2022-08-26T04:52:10.306Z,9.27
2022-08-26T04:54:39.436Z,9.05
2022-08-26T04:57:11.204Z,9.63
2022-08-26T04:59:40.370Z,8.82
2022-08-26T05:02:10.698Z,8.70
2022-08-26T05:04:40.349Z,8.73
2022-08-26T05:07:09.725Z,9.13
2022-08-26T05:09:40.049Z,8.88
2022-08-26T05:12:09.708Z,8.60
2022-08-26T05:14:38.842Z,9.25
2022-08-26T05:17:08.509Z,8.73
2022-08-26T05:19:38.661Z,8.38
2022-08-26T05:22:13.271Z,7.47
2022-08-26T05:24:43.413Z,8.13
2022-08-26T05:27:12.601Z,8.40
2022-08-26T05:29:42.150Z,8.48
2022-08-26T05:32:11.244Z,8.18
2022-08-26T05:34:43.053Z,7.40
2022-08-26T05:37:13.686Z,7.72
2022-08-26T05:39:43.551Z,7.80
2022-08-26T05:42:20.127Z,8.15
2022-08-26T05:44:55.446Z,7.47
2022-08-26T05:47:25.264Z,8.70
2022-08-26T05:49:56.238Z,8.00
2022-08-26T05:52:26.144Z,8.07
2022-08-26T05:54:55.177Z,7.78
2022-08-26T05:57:23.997Z,8.93
2022-08-26T05:59:53.096Z,7.90
2022-08-26T06:02:22.077Z,7.72
2022-08-26T06:04:51.256Z,8.63
2022-08-26T06:07:42.175Z,8.43
2022-08-26T06:10:32.556Z,8.73
2022-08-26T06:13:11.633Z,9.50
2022-08-26T06:15:43.211Z,7.60
2022-08-26T06:18:14.667Z,8.27
2022-08-26T06:20:56.959Z,9.55
2022-08-26T06:23:47.194Z,9.07
2022-08-26T06:26:17.466Z,8.57
2022-08-26T06:28:46.784Z,8.23
2022-08-26T06:31:16.508Z,7.68
2022-08-26T06:33:45.765Z,8.20
2022-08-26T06:36:20.521Z,8.48
2022-08-26T06:38:51.722Z,8.15
2022-08-26T06:41:22.966Z,7.85
2022-08-26T06:43:52.426Z,7.93
2022-08-26T06:46:23.443Z,7.63
2022-08-26T06:48:55.699Z,7.45
2022-08-26T06:51:26.728Z,7.65
2022-08-26T06:53:59.610Z,7.32
2022-08-26T06:56:33.491Z,7.32
2022-08-26T06:59:02.750Z,7.28
2022-08-26T07:01:33.764Z,7.53
2022-08-26T07:04:10.533Z,7.25
2022-08-26T07:06:41.590Z,7.10
2022-08-26T07:09:13.655Z,7.55
2022-08-26T07:11:44.623Z,7.72
2022-08-26T07:14:14.552Z,7.38
2022-08-26T07:16:44.324Z,10.40
2022-08-26T07:19:13.655Z,8.07
2022-08-26T07:21:42.671Z,7.00
2022-08-26T07:24:13.048Z,7.68
2022-08-26T07:26:43.091Z,7.80
2022-08-26T07:29:12.712Z,6.72
2022-08-26T07:31:42.995Z,6.65
2022-08-26T07:34:13.944Z,7.25
2022-08-26T07:36:42.736Z,6.57
2022-08-26T07:39:11.491Z,7.57
2022-08-26T07:41:41.762Z,6.40
2022-08-26T07:44:11.629Z,7.28
2022-08-26T07:46:41.082Z,6.40
2022-08-26T07:49:13.157Z,6.55
2022-08-26T07:51:42.111Z,6.28
2022-08-26T07:54:10.857Z,6.40
2022-08-26T07:56:44.239Z,6.35
2022-08-26T07:59:13.856Z,5.40
2022-08-26T08:01:45.435Z,6.32
2022-08-26T08:04:15.415Z,5.40
2022-08-26T08:06:45.268Z,5.50
2022-08-26T08:09:16.110Z,5.75
2022-08-26T08:11:46.765Z,5.60
2022-08-26T08:14:18.284Z,5.70
2022-08-26T08:16:54.729Z,5.68
2022-08-26T08:19:25.065Z,5.68
2022-08-26T08:22:17.545Z,4.95
2022-08-26T08:24:50.020Z,5.55
2022-08-26T08:27:24.248Z,5.07
2022-08-26T08:29:55.247Z,4.82
2022-08-26T08:32:25.118Z,4.13
2022-08-26T08:34:54.465Z,5.35
2022-08-26T08:37:23.397Z,3.70
2022-08-26T08:39:52.599Z,3.67
2022-08-26T08:42:45.727Z,3.85
2022-08-26T08:45:21.291Z,4.40
2022-08-26T08:47:54.080Z,3.95
2022-08-26T08:50:28.504Z,4.18
2022-08-26T08:53:11.083Z,3.67
2022-08-26T08:56:03.366Z,4.15
2022-08-26T08:58:51.625Z,3.28
2022-08-26T09:01:29.459Z,3.15
2022-08-26T09:04:13.869Z,3.33
2022-08-26T09:06:48.453Z,3.75
2022-08-26T09:09:24.099Z,3.67
2022-08-26T09:11:54.470Z,3.45
2022-08-26T09:14:25.501Z,3.40
2022-08-26T09:17:06.226Z,3.35
2022-08-26T09:19:43.936Z,3.20
2022-08-26T09:22:30.018Z,3.38
2022-08-26T09:24:59.254Z,2.75
2022-08-26T09:27:40.176Z,3.03
2022-08-26T09:30:13.514Z,3.30
2022-08-26T09:32:44.561Z,3.10
2022-08-26T09:35:27.663Z,2.55
2022-08-26T09:37:57.779Z,2.97
2022-08-26T09:40:31.096Z,2.80
2022-08-26T09:43:14.261Z,2.75
2022-08-26T09:45:50.836Z,3.00
2022-08-26T09:48:31.283Z,2.78
2022-08-26T09:51:02.613Z,2.63
2022-08-26T09:53:34.465Z,2.30
2022-08-26T09:56:18.228Z,1.98
2022-08-26T09:58:49.267Z,2.50
2022-08-26T10:01:29.583Z,2.33
2022-08-26T10:04:11.287Z,2.83
2022-08-26T10:06:43.394Z,2.15
2022-08-26T10:09:16.941Z,2.00
2022-08-26T10:11:51.782Z,2.05
2022-08-26T10:14:26.451Z,1.95
2022-08-26T10:17:03.303Z,1.90
2022-08-26T10:19:41.333Z,1.98
2022-08-26T10:22:30.544Z,2.50
2022-08-26T10:25:04.631Z,1.83
2022-08-26T10:27:49.547Z,1.95
2022-08-26T10:30:24.439Z,2.38
2022-08-26T10:32:58.887Z,1.97
2022-08-26T10:35:28.859Z,2.05
2022-08-26T10:38:04.007Z,2.55
2022-08-26T10:40:42.246Z,2.10
2022-08-26T10:43:17.024Z,2.40
2022-08-26T10:45:52.327Z,2.30
2022-08-26T10:48:35.428Z,2.67
2022-08-26T10:51:06.120Z,2.45
2022-08-26T10:53:46.756Z,2.70
2022-08-26T10:56:30.934Z,2.33
2022-08-26T10:59:12.426Z,2.53
2022-08-26T11:01:50.971Z,2.28
2022-08-26T11:04:44.496Z,2.50
2022-08-26T11:07:43.663Z,2.42
2022-08-26T11:10:54.613Z,2.05
2022-08-26T11:14:09.501Z,2.28
2022-08-26T11:16:42.861Z,2.22
2022-08-26T11:19:58.991Z,2.13
2022-08-26T11:22:30.236Z,2.13
2022-08-26T11:25:11.261Z,2.53
2022-08-26T11:27:57.084Z,2.65
2022-08-26T11:30:57.890Z,3.30
2022-08-26T11:33:58.297Z,2.47
2022-08-26T11:36:39.291Z,3.13
2022-08-26T11:39:20.219Z,2.63
2022-08-26T11:41:52.763Z,2.50
2022-08-26T11:44:24.029Z,2.50
2022-08-26T11:46:56.607Z,2.30
2022-08-26T11:49:26.001Z,2.88
2022-08-26T11:52:09.663Z,3.00
2022-08-26T11:54:39.957Z,2.38
2022-08-26T11:57:13.527Z,2.63
2022-08-26T11:59:43.558Z,2.78
2022-08-26T12:02:17.744Z,3.03
2022-08-26T12:04:50.822Z,2.83
2022-08-26T12:07:25.003Z,2.63
2022-08-26T12:09:58.102Z,3.10
2022-08-26T12:12:35.020Z,2.08
2022-08-26T12:15:11.279Z,2.88
2022-08-26T12:17:40.810Z,2.70
2022-08-26T12:20:21.302Z,2.33
2022-08-26T12:22:51.176Z,2.90
2022-08-26T12:25:25.353Z,2.20
2022-08-26T12:27:54.343Z,2.25
2022-08-26T12:30:26.171Z,2.38
2022-08-26T12:33:22.529Z,2.67
2022-08-26T12:35:56.561Z,2.35
2022-08-26T12:38:27.272Z,2.20
2022-08-26T12:40:58.197Z,1.57
2022-08-26T12:43:44.706Z,1.80
2022-08-26T12:46:17.097Z,2.10
2022-08-26T12:48:50.213Z,2.15
2022-08-26T12:51:25.951Z,2.33
2022-08-26T12:53:55.508Z,2.90
2022-08-26T12:56:35.322Z,2.50
2022-08-26T12:59:10.244Z,2.70
2022-08-26T13:01:44.230Z,2.17
2022-08-26T13:04:34.386Z,2.33
2022-08-26T13:07:21.337Z,2.00
2022-08-26T13:09:51.767Z,2.25
2022-08-26T13:12:34.970Z,2.25
2022-08-26T13:15:05.505Z,2.30
2022-08-26T13:17:35.970Z,2.20
2022-08-26T13:20:05.264Z,2.15
2022-08-26T13:22:34.733Z,2.17
2022-08-26T13:25:03.449Z,2.90
2022-08-26T13:27:33.619Z,2.28
2022-08-26T13:30:02.366Z,2.50
2022-08-26T13:32:32.872Z,2.30
2022-08-26T13:35:05.934Z,2.60
2022-08-26T13:37:35.626Z,2.30
2022-08-26T13:40:07.044Z,2.22
2022-08-26T13:42:37.327Z,2.20
2022-08-26T13:45:19.230Z,2.67
2022-08-26T13:47:48.539Z,2.30
2022-08-26T13:50:17.582Z,2.63
2022-08-26T13:52:46.362Z,1.95
2022-08-26T13:55:15.312Z,1.92
2022-08-26T13:57:45.519Z,2.47
2022-08-26T14:00:15.758Z,2.10
2022-08-26T14:02:44.575Z,3.03
2022-08-26T14:05:13.748Z,2.90
2022-08-26T14:07:42.738Z,2.25
2022-08-26T14:10:12.782Z,2.42
2022-08-26T14:12:41.578Z,2.40
2022-08-26T14:15:16.311Z,3.08
2022-08-26T14:17:45.896Z,2.17
2022-08-26T14:20:21.291Z,2.22
2022-08-26T14:23:20.673Z,2.65
2022-08-26T14:25:39.235Z,2.15
2022-08-26T14:28:07.991Z,2.15
2022-08-26T14:30:41.066Z,4.85
2022-08-26T14:33:13.410Z,2.78
2022-08-26T14:35:48.050Z,2.05
2022-08-26T14:38:18.253Z,3.05
2022-08-26T14:40:47.051Z,2.55
2022-08-26T14:43:16.475Z,2.25
2022-08-26T14:45:46.772Z,2.45
2022-08-26T14:48:15.613Z,1.90
2022-08-26T14:50:44.623Z,2.15
2022-08-26T14:53:31.201Z,2.45
2022-08-26T14:56:00.059Z,2.20
2022-08-26T14:58:34.721Z,1.80
2022-08-26T15:01:06.988Z,2.28
2022-08-26T15:03:35.783Z,2.17
2022-08-26T15:06:05.564Z,1.67
2022-08-26T15:08:36.703Z,1.92
2022-08-26T15:11:05.990Z,1.80
2022-08-26T15:13:35.055Z,2.40
2022-08-26T15:16:05.587Z,2.63
2022-08-26T15:18:34.355Z,2.40
2022-08-26T15:21:03.841Z,2.60
2022-08-26T15:23:32.662Z,1.90
2022-08-26T15:26:01.666Z,2.78
2022-08-26T15:28:31.306Z,2.55
2022-08-26T15:31:00.507Z,2.35
2022-08-26T15:33:30.767Z,2.35
2022-08-26T15:36:01.193Z,2.13
2022-08-26T15:38:31.737Z,2.00
2022-08-26T15:41:03.365Z,2.00
2022-08-26T15:43:32.954Z,2.30
2022-08-26T15:46:01.871Z,3.15
2022-08-26T15:48:32.194Z,2.20
2022-08-26T15:51:02.427Z,2.42
2022-08-26T15:53:33.485Z,2.30
2022-08-26T15:56:03.029Z,2.72
2022-08-26T15:58:32.217Z,2.58
2022-08-26T16:01:01.353Z,2.40
2022-08-26T16:03:31.752Z,2.45
2022-08-26T16:06:00.656Z,2.50
2022-08-26T16:08:30.106Z,3.25
2022-08-26T16:11:06.060Z,2.75
2022-08-26T16:13:39.605Z,4.18
2022-08-26T16:16:09.624Z,3.28
2022-08-26T16:18:39.893Z,2.58
2022-08-26T16:21:13.175Z,3.33
2022-08-26T16:23:45.060Z,2.60
2022-08-26T16:26:18.023Z,2.85
2022-08-26T16:28:47.763Z,2.83
2022-08-26T16:31:17.370Z,2.92
2022-08-26T16:33:47.566Z,2.67
2022-08-26T16:36:16.826Z,3.42
2022-08-26T16:38:50.084Z,3.20
2022-08-26T16:41:19.359Z,3.47
2022-08-26T16:43:49.123Z,3.90
2022-08-26T16:46:18.976Z,3.78
2022-08-26T16:48:49.594Z,3.63
2022-08-26T16:51:21.169Z,3.53
2022-08-26T16:53:51.486Z,3.10
2022-08-26T16:56:30.629Z,3.38
2022-08-26T16:59:04.353Z,2.92
2022-08-26T17:01:34.052Z,2.75
2022-08-26T17:04:05.235Z,4.07
2022-08-26T17:06:34.220Z,4.13
2022-08-26T17:09:03.053Z,3.33
2022-08-26T17:11:32.040Z,3.45
2022-08-26T17:14:00.898Z,4.20
2022-08-26T17:16:29.947Z,4.68
2022-08-26T17:18:59.949Z,3.83
2022-08-26T17:21:30.466Z,4.45
2022-08-26T17:23:59.478Z,4.35
2022-08-26T17:26:29.199Z,4.30
2022-08-26T17:28:58.279Z,5.60
2022-08-26T17:31:27.469Z,3.92
2022-08-26T17:33:56.944Z,4.78
2022-08-26T17:36:27.450Z,4.25
2022-08-26T17:38:59.490Z,4.00
2022-08-26T17:41:29.173Z,4.88
2022-08-26T17:43:58.350Z,4.63
2022-08-26T17:46:27.517Z,4.38
2022-08-26T17:48:56.563Z,4.80
2022-08-26T17:51:25.599Z,4.93
2022-08-26T17:53:54.722Z,4.60
2022-08-26T17:56:27.283Z,5.00
2022-08-26T17:59:04.025Z,5.07
2022-08-26T18:01:33.357Z,4.88
2022-08-26T18:04:03.032Z,4.90
2022-08-26T18:06:33.363Z,5.43
2022-08-26T18:09:02.822Z,5.13
2022-08-26T18:11:33.657Z,5.60
2022-08-26T18:14:03.043Z,5.60
2022-08-26T18:16:38.339Z,5.50
2022-08-26T18:19:07.653Z,6.07
2022-08-26T18:21:37.399Z,6.07
2022-08-26T18:24:08.304Z,7.32
2022-08-26T18:26:48.430Z,7.45
2022-08-26T18:29:21.684Z,7.35
2022-08-26T18:31:50.976Z,7.90
2022-08-26T18:34:19.991Z,7.53
2022-08-26T18:36:51.810Z,8.45
2022-08-26T18:39:22.200Z,7.70
2022-08-26T18:41:54.325Z,7.47
2022-08-26T18:44:24.002Z,7.60
2022-08-26T18:46:53.714Z,6.60
2022-08-26T18:49:26.144Z,7.10
2022-08-26T18:51:55.226Z,6.95
2022-08-26T18:54:26.113Z,6.82
2022-08-26T18:56:56.660Z,6.50
2022-08-26T18:59:29.564Z,6.70
2022-08-26T19:02:00.023Z,7.00
2022-08-26T19:04:29.540Z,7.07
2022-08-26T19:06:58.592Z,6.93
2022-08-26T19:09:28.207Z,7.45
2022-08-26T19:11:59.452Z,7.07
2022-08-26T19:14:28.600Z,6.97
2022-08-26T19:16:57.824Z,7.40
2022-08-26T19:19:26.941Z,7.20
2022-08-26T19:21:56.113Z,7.47
2022-08-26T19:24:27.459Z,7.38
2022-08-26T19:27:01.555Z,7.67
2022-08-26T19:29:33.272Z,8.75
2022-08-26T19:32:04.239Z,7.45
2022-08-26T19:34:33.593Z,10.15
2022-08-26T19:37:02.738Z,8.60
2022-08-26T19:39:31.828Z,9.27
2022-08-26T19:42:02.118Z,8.10
2022-08-26T19:44:48.563Z,9.02
2022-08-26T19:47:17.920Z,8.23
2022-08-26T19:49:46.863Z,8.77
2022-08-26T19:52:15.882Z,9.88
2022-08-26T19:54:44.902Z,8.38
2022-08-26T19:57:15.200Z,7.95
2022-08-26T19:59:44.479Z,8.98
2022-08-26T20:02:14.858Z,9.20
2022-08-26T20:04:44.773Z,9.18
2022-08-26T20:07:18.511Z,8.43
2022-08-26T20:09:48.781Z,8.50
2022-08-26T20:12:19.787Z,8.52
2022-08-26T20:14:48.821Z,8.57
2022-08-26T20:17:17.997Z,8.98
2022-08-26T20:20:04.111Z,10.57
2022-08-26T20:22:40.371Z,10.40
2022-08-26T20:25:10.210Z,9.65
2022-08-26T20:27:41.301Z,9.93
2022-08-26T20:30:12.116Z,9.18
2022-08-26T20:32:42.581Z,9.13
2022-08-26T20:35:14.427Z,24.83
2022-08-26T20:37:43.935Z,10.32
2022-08-26T20:40:14.641Z,9.38
2022-08-26T20:42:45.046Z,9.38
2022-08-26T20:45:13.979Z,15.82
2022-08-26T20:47:42.970Z,10.60
2022-08-26T20:50:11.790Z,9.65
2022-08-26T20:52:40.686Z,9.75
2022-08-26T20:55:10.646Z,10.02
2022-08-26T20:57:42.544Z,9.85
2022-08-26T21:00:16.355Z,9.90
2022-08-26T21:02:47.375Z,9.90
2022-08-26T21:05:16.518Z,9.55
2022-08-26T21:07:46.011Z,9.35
2022-08-26T21:10:15.325Z,8.70
2022-08-26T21:12:44.613Z,9.73
2022-08-26T21:15:16.502Z,10.15
2022-08-26T21:17:45.632Z,9.98
2022-08-26T21:20:14.468Z,10.52
2022-08-26T21:22:43.330Z,10.90
2022-08-26T21:25:12.564Z,10.15
2022-08-26T21:27:41.520Z,9.18
2022-08-26T21:30:11.814Z,10.38
2022-08-26T21:32:44.966Z,10.68
2022-08-26T21:35:13.895Z,10.00
2022-08-26T21:37:42.790Z,10.02
2022-08-26T21:40:12.541Z,10.63
2022-08-26T21:42:41.605Z,11.38
2022-08-26T21:45:11.616Z,10.82
2022-08-26T21:47:41.647Z,11.02
2022-08-26T21:50:13.639Z,10.98
2022-08-26T21:52:42.668Z,10.82
2022-08-26T21:55:11.924Z,11.23
2022-08-26T21:57:40.926Z,10.70
2022-08-26T22:00:13.564Z,10.57
2022-08-26T22:02:43.354Z,10.10
2022-08-26T22:05:13.813Z,11.00
2022-08-26T22:07:42.800Z,9.55
2022-08-26T22:10:12.795Z,10.40
2022-08-26T22:12:41.583Z,10.23
2022-08-26T22:15:11.289Z,10.40
2022-08-26T22:17:40.372Z,10.27
2022-08-26T22:20:16.328Z,10.63
2022-08-26T22:22:47.040Z,10.30
2022-08-26T22:25:19.220Z,10.07
2022-08-26T22:27:47.932Z,9.77
2022-08-26T22:30:17.242Z,10.25
2022-08-26T22:32:46.100Z,10.23
2022-08-26T22:35:29.323Z,9.00
2022-08-26T22:38:00.268Z,9.27
2022-08-26T22:40:29.240Z,8.70
2022-08-26T22:43:00.334Z,8.05
2022-08-26T22:45:32.901Z,8.77
2022-08-26T22:48:05.180Z,9.60
2022-08-26T22:50:34.303Z,9.07
2022-08-26T22:53:05.581Z,8.65
2022-08-26T22:55:34.772Z,8.45
2022-08-26T22:58:04.489Z,8.38
2022-08-26T23:00:34.437Z,8.32
2022-08-26T23:03:05.718Z,8.85
2022-08-26T23:05:35.211Z,7.22
2022-08-26T23:08:05.824Z,8.38
2022-08-26T23:10:36.928Z,8.20
2022-08-26T23:13:08.198Z,7.97
2022-08-26T23:15:37.857Z,9.00
2022-08-26T23:18:07.437Z,7.65
2022-08-26T23:20:36.604Z,8.27
2022-08-26T23:23:07.325Z,8.18
2022-08-26T23:25:36.380Z,8.13
2022-08-26T23:28:05.572Z,8.38
2022-08-26T23:30:35.540Z,7.10
2022-08-26T23:33:04.468Z,7.72
2022-08-26T23:35:32.536Z,7.35
2022-08-26T23:38:01.897Z,7.90
2022-08-26T23:40:35.857Z,7.53
2022-08-26T23:43:07.419Z,7.25
2022-08-26T23:45:37.139Z,7.85
2022-08-26T23:48:07.016Z,7.20
2022-08-26T23:50:53.202Z,7.80
2022-08-26T23:53:23.802Z,7.57
2022-08-26T23:55:54.341Z,7.95
2022-08-26T23:58:23.447Z,7.72
